Time;durP1;ratioP1;P1;durP2;ratioP2;P2;SDS_P1;SDS_P2;PMS_P1;PMS_P2;Temp;Humidity;BMP_temperature;BMP_pressure;BME280_temperature;BME280_humidity;BME280_pressure;Samples;Min_cycle;Max_cycle;Signal;HPM_P1;HPM_P2
2023/05/24 05:01:55;;;;;;;;;0.00;0.00;;;;;15.17;53.08;53430.22;6332634;22;45700;-85
2023/05/24 05:04:20;;;;;;;;;0.00;0.00;;;;;15.36;53.17;53426.31;6366507;22;45359;-84
2023/05/24 05:06:47;;;;;;;;;0.00;0.00;;;;;15.33;53.06;53447.84;6364603;22;45421;-85
2023/05/24 05:09:13;;;;;;;;;1.00;1.00;;;;;15.36;52.74;53357.75;6367337;22;45385;-85
2023/05/24 05:11:39;;;;;;;;;0.00;0.00;;;;;15.24;53.18;53255.88;6367580;22;45382;-84
2023/05/24 05:14:05;;;;;;;;;0.67;0.67;;;;;15.38;53.21;53091.09;6338478;22;46890;-86
2023/05/24 05:16:30;;;;;;;;;0.00;0.00;;;;;15.19;53.39;53105.75;6366881;22;46008;-86
2023/05/24 05:18:56;;;;;;;;;1.00;1.00;;;;;15.39;53.28;52896.09;6365138;22;45310;-86
2023/05/24 05:21:22;;;;;;;;;3.00;0.00;;;;;15.39;52.88;52768.72;6367021;22;45468;-86
2023/05/24 05:23:47;;;;;;;;;1.00;1.00;;;;;15.29;52.96;52634.78;6365968;22;45453;-84
2023/05/24 05:26:13;;;;;;;;;0.33;0.33;;;;;15.27;53.34;52529.47;6366105;22;45350;-86
2023/05/24 05:28:38;;;;;;;;;0.00;0.00;;;;;15.40;53.44;52342.41;6366886;22;45409;-84
2023/05/24 05:31:03;;;;;;;;;1.00;1.00;;;;;15.41;53.25;52414.50;6367209;22;45360;-82
2023/05/24 05:33:32;;;;;;;;;0.00;0.00;;;;;15.44;53.18;52321.25;6366619;22;47124;-84
2023/05/24 05:35:57;;;;;;;;;0.00;0.00;;;;;15.40;53.11;52410.91;6338589;22;45437;-83
2023/05/24 05:38:23;;;;;;;;;0.33;0.00;;;;;15.47;52.87;52342.56;6367032;22;45441;-85
2023/05/24 05:40:48;;;;;;;;;0.00;0.00;;;;;15.39;53.19;52232.69;6366605;22;45572;-80
2023/05/24 05:43:13;;;;;;;;;0.67;0.67;;;;;15.50;53.20;52045.91;6366439;22;46076;-79
2023/05/24 05:45:39;;;;;;;;;0.33;0.33;;;;;15.28;52.98;52135.06;6366239;22;45389;-81
2023/05/24 05:48:04;;;;;;;;;2.00;1.00;;;;;15.49;52.94;51935.72;6366674;22;45607;-78
2023/05/24 05:50:30;;;;;;;;;0.00;0.00;;;;;15.57;53.02;51751.94;6367875;22;45485;-78
2023/05/24 05:52:56;;;;;;;;;0.00;0.00;;;;;15.56;53.02;51613.47;6367492;22;46152;-81
2023/05/24 05:55:22;;;;;;;;;0.00;0.00;;;;;15.58;53.11;51570.16;6366757;22;45323;-81
2023/05/24 05:57:47;;;;;;;;;1.00;0.00;;;;;15.54;53.16;51447.13;6367580;22;45375;-79
2023/05/24 06:00:13;;;;;;;;;0.00;0.00;;;;;15.67;53.13;51445.13;6368216;22;45476;-79
2023/05/24 06:02:39;;;;;;;;;2.00;1.00;;;;;15.70;53.00;51259.41;6367472;22;46034;-79
2023/05/24 06:05:05;;;;;;;;;0.00;0.00;;;;;15.58;53.12;51182.28;6367371;22;45322;-79
2023/05/24 06:07:30;;;;;;;;;0.00;0.00;;;;;15.75;53.14;51011.75;6339480;22;45301;-79
2023/05/24 06:09:56;;;;;;;;;0.00;0.00;;;;;15.78;53.12;50807.41;6367617;22;45315;-79
2023/05/24 06:12:21;;;;;;;;;0.00;0.00;;;;;15.78;53.06;50830.84;6367808;22;52729;-79
2023/05/24 06:14:49;;;;;;;;;0.00;0.00;;;;;15.81;52.91;50817.59;6368702;22;45278;-79
2023/05/24 06:17:15;;;;;;;;;0.00;0.00;;;;;15.83;52.74;50718.94;6367562;22;45432;-81
2023/05/24 06:19:40;;;;;;;;;0.00;0.00;;;;;15.85;53.02;50616.78;6368499;22;45476;-78
2023/05/24 06:22:05;;;;;;;;;0.33;0.00;;;;;15.76;52.68;50420.78;6368530;22;46684;-81
2023/05/24 06:24:34;;;;;;;;;0.00;0.00;;;;;15.72;52.89;50191.69;6367649;22;45473;-80
2023/05/24 06:26:59;;;;;;;;;5.67;5.67;;;;;15.79;52.91;50025.38;6368052;22;45312;-81
2023/05/24 06:29:24;;;;;;;;;1.00;1.00;;;;;15.94;53.14;49801.88;6368285;22;45576;-84
2023/05/24 06:31:50;;;;;;;;;2.67;0.67;;;;;15.94;53.25;49642.19;6367725;22;47079;-83
2023/05/24 06:34:17;;;;;;;;;1.67;1.00;;;;;15.99;53.44;49468.72;6368421;22;45390;-84
2023/05/24 06:36:45;;;;;;;;;0.00;0.00;;;;;16.00;53.08;49294.41;6368173;22;45413;-84
2023/05/24 06:39:11;;;;;;;;;0.00;0.00;;;;;15.97;52.94;49122.41;6368193;22;45498;-82
2023/05/24 06:41:37;;;;;;;;;0.00;0.00;;;;;15.97;53.02;49267.94;6368148;22;46017;-83
2023/05/24 06:44:03;;;;;;;;;1.00;1.00;;;;;16.02;53.11;49339.03;6368128;22;45338;-85
2023/05/24 06:46:28;;;;;;;;;1.00;1.00;;;;;15.95;53.16;49244.97;6367749;22;45398;-83
2023/05/24 06:48:54;;;;;;;;;0.00;0.00;;;;;16.04;53.29;49090.84;6363783;22;45260;-84
2023/05/24 06:51:19;;;;;;;;;0.67;0.67;;;;;16.07;53.07;48814.34;6367593;22;45486;-83
2023/05/24 06:53:45;;;;;;;;;1.00;1.00;;;;;15.94;53.30;48971.19;6368018;22;45312;-83
2023/05/24 06:56:10;;;;;;;;;0.00;0.00;;;;;16.00;53.10;48814.50;6368457;22;45358;-83
2023/05/24 06:58:35;;;;;;;;;0.00;0.00;;;;;16.01;53.12;48661.44;6368405;22;45283;-84
2023/05/24 07:01:03;;;;;;;;;0.33;0.00;;;;;16.14;52.97;48674.78;6367558;22;45856;-83
2023/05/24 07:03:29;;;;;;;;;1.33;0.00;;;;;15.99;53.34;48391.72;6366987;22;45567;-83
2023/05/24 07:05:55;;;;;;;;;0.00;0.00;;;;;16.20;53.34;48066.75;6368211;22;46025;-84
2023/05/24 07:08:21;;;;;;;;;0.00;0.00;;;;;16.17;53.33;47395.06;6367783;22;45453;-85
2023/05/24 07:10:46;;;;;;;;;0.33;0.33;;;;;16.25;53.78;47227.00;6367540;22;59361;-82
2023/05/24 07:13:12;;;;;;;;;0.00;0.00;;;;;16.16;53.52;46906.03;6368065;22;45404;-83
2023/05/24 07:15:40;;;;;;;;;0.33;0.33;;;;;16.32;53.56;46661.81;6368278;22;45642;-82
2023/05/24 07:18:06;;;;;;;;;1.00;0.00;;;;;16.15;53.54;46576.63;6368402;22;45607;-83
2023/05/24 07:20:31;;;;;;;;;0.00;0.00;;;;;16.22;53.59;46321.97;6368503;22;45598;-83
2023/05/24 07:22:57;;;;;;;;;0.00;0.00;;;;;16.40;53.64;46188.06;6367578;22;45353;-83
2023/05/24 07:25:23;;;;;;;;;0.00;0.00;;;;;16.44;53.30;45902.03;6367943;22;45373;-83
2023/05/24 07:27:49;;;;;;;;;0.00;0.00;;;;;16.36;53.80;45587.41;6368815;22;45377;-83
2023/05/24 07:30:15;;;;;;;;;0.00;0.00;;;;;16.39;53.77;45032.69;6367209;22;47253;-83
2023/05/24 07:32:40;;;;;;;;;0.00;0.00;;;;;16.41;53.55;44747.75;6367663;22;45407;-83
2023/05/24 07:35:06;;;;;;;;;0.00;0.00;;;;;16.48;53.60;44469.41;6367895;22;45358;-84
2023/05/24 07:37:31;;;;;;;;;0.33;0.00;;;;;16.62;53.63;44541.06;6368091;22;45456;-84
2023/05/24 07:39:57;;;;;;;;;3.00;0.00;;;;;16.56;53.35;44411.63;6368044;22;46942;-83
2023/05/24 07:42:22;;;;;;;;;1.00;1.00;;;;;16.67;53.39;44449.84;6367670;22;45554;-84
2023/05/24 07:44:48;;;;;;;;;0.00;0.00;;;;;16.57;53.39;44457.91;6367541;22;45321;-84
2023/05/24 07:47:13;;;;;;;;;0.67;0.00;;;;;16.77;53.06;44308.28;6366563;22;45578;-84
2023/05/24 07:49:39;;;;;;;;;0.00;0.00;;;;;16.80;53.02;44297.38;6366908;22;59067;-84
2023/05/24 07:52:05;;;;;;;;;0.00;0.00;;;;;16.83;53.09;44549.63;6368221;22;45316;-83
2023/05/24 07:54:30;;;;;;;;;0.00;0.00;;;;;16.81;53.17;44616.66;6368113;22;45366;-82
2023/05/24 07:56:56;;;;;;;;;0.00;0.00;;;;;16.78;52.78;44776.59;6339746;22;45323;-83
2023/05/24 07:59:22;;;;;;;;;0.00;0.00;;;;;16.90;53.05;44660.91;6366879;22;46284;-85
2023/05/24 08:01:47;;;;;;;;;0.00;0.00;;;;;16.97;52.47;44408.91;6367306;22;45460;-83
2023/05/24 08:04:13;;;;;;;;;0.00;0.00;;;;;16.98;52.70;44064.19;6366696;22;45307;-83
2023/05/24 08:06:38;;;;;;;;;0.00;0.00;;;;;17.05;52.56;43960.78;6368245;22;45559;-84
2023/05/24 08:09:04;;;;;;;;;0.00;0.00;;;;;17.08;52.85;44061.34;6338847;22;50517;-84
2023/05/24 08:11:29;;;;;;;;;0.00;0.00;;;;;16.99;52.33;44025.13;6367611;22;45386;-84
2023/05/24 08:13:55;;;;;;;;;1.00;0.00;;;;;17.16;52.23;44476.13;6367647;22;45334;-83
2023/05/24 08:16:20;;;;;;;;;0.00;0.00;;;;;17.18;52.33;44828.28;6368374;22;45584;-83
2023/05/24 08:18:45;;;;;;;;;1.00;0.00;;;;;17.22;52.04;44661.47;6367498;22;45433;-83
2023/05/24 08:21:11;;;;;;;;;0.00;0.00;;;;;17.14;52.06;45029.63;6367627;22;45401;-85
2023/05/24 08:23:36;;;;;;;;;0.00;0.00;;;;;17.29;51.82;45275.34;6367383;22;45436;-85
2023/05/24 08:26:02;;;;;;;;;1.00;0.00;;;;;17.34;51.67;45310.81;6368127;22;45406;-86
2023/05/24 08:28:28;;;;;;;;;0.00;0.00;;;;;17.35;51.65;45293.00;6367262;22;46857;-84
2023/05/24 08:30:54;;;;;;;;;0.00;0.00;;;;;17.22;51.20;45144.91;6367520;22;45346;-83
2023/05/24 08:33:21;;;;;;;;;0.00;0.00;;;;;17.45;51.40;45027.28;6366788;22;45443;-86
2023/05/24 08:35:47;;;;;;;;;1.33;0.00;;;;;17.54;51.31;45188.19;6367667;22;45507;-86
2023/05/24 08:38:12;;;;;;;;;0.00;0.00;;;;;17.50;51.20;45642.94;6367650;22;46058;-86
2023/05/24 08:40:38;;;;;;;;;0.00;0.00;;;;;17.60;50.93;45368.81;6367574;22;45355;-86
2023/05/24 08:43:10;;;;;;;;;0.00;0.00;;;;;17.63;50.95;45094.75;6338750;22;45368;-86
2023/05/24 08:45:37;;;;;;;;;0.00;0.00;;;;;17.77;51.05;45238.03;6367727;22;45460;-86
2023/05/24 08:48:03;;;;;;;;;1.00;0.00;;;;;17.81;50.68;45175.16;6366342;22;47151;-86
2023/05/24 08:50:30;;;;;;;;;0.00;0.00;;;;;17.88;50.73;45135.13;6366817;22;45346;-86
2023/05/24 08:52:58;;;;;;;;;0.00;0.00;;;;;17.80;50.81;45192.97;6367474;22;45423;-86
2023/05/24 08:55:23;;;;;;;;;0.00;0.00;;;;;17.92;50.11;45329.78;6367927;22;45533;-84
2023/05/24 08:57:50;;;;;;;;;0.00;0.00;;;;;18.16;50.20;45138.00;6367149;22;45354;-86
2023/05/24 09:00:16;;;;;;;;;0.00;0.00;;;;;18.16;50.24;44255.22;6367058;22;45295;-86
2023/05/24 09:02:44;;;;;;;;;0.00;0.00;;;;;18.81;49.39;42701.91;6367182;22;45458;-85
2023/05/24 09:05:11;;;;;;;;;1.00;0.00;;;;;19.37;49.07;41284.25;6367348;22;45576;-83
2023/05/24 09:07:36;;;;;;;;;0.00;0.00;;;;;20.20;48.62;38851.13;6367565;22;45345;-82
2023/05/24 09:10:07;;;;;;;;;1.00;0.00;;;;;21.06;47.42;36967.00;6338705;22;45401;-84
2023/05/24 09:12:35;;;;;;;;;0.00;0.00;;;;;21.89;47.01;34102.13;6368162;22;45245;-83
2023/05/24 09:15:01;;;;;;;;;0.00;0.00;;;;;22.97;45.41;33920.88;6368838;22;45497;-84
2023/05/24 09:17:27;;;;;;;;;0.75;0.00;;;;;23.76;44.91;34690.59;6367770;22;47433;-84
2023/05/24 09:19:53;;;;;;;;;0.00;0.00;;;;;24.72;43.33;36873.16;6368511;22;45236;-84
2023/05/24 09:22:24;;;;;;;;;0.00;0.00;;;;;25.49;42.65;39668.84;6368503;22;45599;-83
2023/05/24 09:24:50;;;;;;;;;3.00;0.00;;;;;26.19;40.96;47673.06;6369285;22;45407;-84
2023/05/24 09:27:16;;;;;;;;;0.00;0.00;;;;;26.86;40.99;48448.88;6368414;22;47007;-85
2023/05/24 09:29:45;;;;;;;;;0.00;0.00;;;;;27.30;39.68;55344.63;6369221;22;45505;-83
2023/05/24 09:32:11;;;;;;;;;0.00;0.00;;;;;27.85;38.50;58588.50;6368609;22;45354;-85
2023/05/24 09:34:39;;;;;;;;;0.00;0.00;;;;;28.34;37.56;61500.25;6369163;22;45361;-85
2023/05/24 09:37:05;;;;;;;;;0.25;0.00;;;;;28.68;37.61;63164.84;6367670;22;45987;-85
2023/05/24 09:39:30;;;;;;;;;0.00;0.00;;;;;29.07;36.85;64202.00;6368719;22;45381;-84
2023/05/24 09:41:56;;;;;;;;;0.00;0.00;;;;;29.37;36.03;67084.66;6368647;22;45406;-85
2023/05/24 09:44:28;;;;;;;;;0.00;0.00;;;;;29.63;35.82;68078.47;6368705;22;45383;-85
2023/05/24 09:47:00;;;;;;;;;0.00;0.00;;;;;29.79;34.74;69426.28;6367945;22;45365;-84
2023/05/24 09:49:26;;;;;;;;;0.00;0.00;;;;;29.89;34.22;70417.25;6339989;22;45648;-86
2023/05/24 09:51:51;;;;;;;;;0.00;0.00;;;;;29.89;34.15;70700.94;6368778;22;45425;-84
2023/05/24 09:54:17;;;;;;;;;0.00;0.00;;;;;29.84;33.90;70930.09;6369030;22;45252;-85
2023/05/24 09:56:45;;;;;;;;;0.00;0.00;;;;;29.72;33.16;71215.56;6368086;22;46560;-83
2023/05/24 09:59:11;;;;;;;;;0.00;0.00;;;;;29.59;33.92;71249.41;6338320;22;45897;-84
2023/05/24 10:01:36;;;;;;;;;0.00;0.00;;;;;29.33;33.30;71204.13;6339281;22;45346;-85
2023/05/24 10:04:05;;;;;;;;;0.50;0.50;;;;;29.29;33.70;71351.88;6369065;22;45513;-85
2023/05/24 10:06:35;;;;;;;;;1.00;0.00;;;;;29.03;34.19;71187.88;6368123;22;46856;-84
2023/05/24 10:09:08;;;;;;;;;0.25;0.00;;;;;28.81;34.52;71211.34;6367990;22;45385;-84
2023/05/24 10:11:37;;;;;;;;;0.00;0.00;;;;;28.73;34.30;71113.84;6368118;22;45402;-84
2023/05/24 10:14:08;;;;;;;;;0.00;0.00;;;;;28.50;34.42;71078.94;6368659;22;45409;-82
2023/05/24 10:16:36;;;;;;;;;1.50;1.00;;;;;28.42;34.29;71140.56;6367897;22;45453;-84
2023/05/24 10:19:02;;;;;;;;;0.00;0.00;;;;;28.48;34.09;71011.16;6367619;22;45402;-84
2023/05/24 10:21:30;;;;;;;;;0.00;0.00;;;;;28.43;34.18;71029.56;6368388;22;45394;-84
2023/05/24 10:23:58;;;;;;;;;0.00;0.00;;;;;28.27;33.96;71057.00;6368440;22;45351;-84
2023/05/24 10:26:28;;;;;;;;;0.00;0.00;;;;;28.36;33.48;70980.84;6368225;22;45899;-82
2023/05/24 10:28:59;;;;;;;;;0.00;0.00;;;;;28.36;32.86;70989.00;6367731;22;45326;-84
2023/05/24 10:31:31;;;;;;;;;1.00;0.00;;;;;28.32;32.99;70946.06;6339590;22;45557;-83
2023/05/24 10:33:59;;;;;;;;;0.00;0.00;;;;;28.24;32.74;70916.69;6368753;22;45245;-84
2023/05/24 10:36:25;;;;;;;;;0.00;0.00;;;;;28.28;32.15;70894.94;6367850;22;46065;-84
2023/05/24 10:38:51;;;;;;;;;1.00;0.00;;;;;28.40;32.00;71012.31;6367787;22;45385;-81
2023/05/24 10:41:17;;;;;;;;;0.00;0.00;;;;;28.39;31.38;70907.69;6368531;22;45431;-81
2023/05/24 10:43:47;;;;;;;;;0.00;0.00;;;;;28.40;31.60;71037.44;6367820;22;45421;-82
2023/05/24 10:46:15;;;;;;;;;0.00;0.00;;;;;28.54;32.09;71070.19;6367776;22;46464;-83
2023/05/24 10:48:41;;;;;;;;;0.00;0.00;;;;;28.60;31.71;71057.81;6367756;22;45401;-83
2023/05/24 10:51:32;;;;;;;;;0.00;0.00;;;;;28.69;31.09;70981.03;6340014;22;45404;-82
2023/05/24 10:54:09;;;;;;;;;1.75;0.00;;;;;28.74;31.23;71050.31;6368109;22;45307;-83
2023/05/24 10:56:41;;;;;;;;;1.00;0.00;;;;;28.66;30.98;71039.97;6368233;22;46316;-81
2023/05/24 10:59:07;;;;;;;;;0.00;0.00;;;;;28.66;30.69;70993.69;6367383;22;45372;-82
2023/05/24 11:01:33;;;;;;;;;0.00;0.00;;;;;28.86;30.58;70968.97;6368451;22;45279;-83
2023/05/24 11:04:16;;;;;;;;;0.00;0.00;;;;;28.77;30.45;70971.66;6368108;22;45538;-83
2023/05/24 11:07:04;;;;;;;;;0.50;0.50;;;;;28.85;29.83;70864.28;6367886;22;46000;-83
2023/05/24 11:09:31;;;;;;;;;1.00;0.00;;;;;28.93;29.93;70889.69;6367495;22;45504;-84
2023/05/24 11:12:06;;;;;;;;;0.00;0.00;;;;;28.96;29.71;70852.47;6367963;22;45353;-83
2023/05/24 11:14:35;;;;;;;;;0.50;0.00;;;;;28.93;29.64;70916.94;6367974;22;45415;-83
2023/05/24 11:17:00;;;;;;;;;0.00;0.00;;;;;28.92;29.39;70840.06;6367171;22;47407;-83
2023/05/24 11:19:31;;;;;;;;;0.00;0.00;;;;;29.09;29.94;70925.47;6368182;22;45323;-84
2023/05/24 11:22:02;;;;;;;;;0.00;0.00;;;;;29.01;29.43;70921.81;6367994;22;45365;-84
2023/05/24 11:24:29;;;;;;;;;0.00;0.00;;;;;29.09;29.89;70936.38;6368347;22;45438;-82
2023/05/24 11:26:55;;;;;;;;;0.00;0.00;;;;;29.29;29.71;71033.63;6367589;22;46520;-84
2023/05/24 11:29:23;;;;;;;;;0.00;0.00;;;;;29.24;29.29;70836.75;6366702;22;45394;-82
2023/05/24 11:31:56;;;;;;;;;0.00;0.00;;;;;29.36;29.49;70924.91;6368107;22;45415;-84
2023/05/24 11:34:23;;;;;;;;;0.00;0.00;;;;;29.31;29.76;70918.81;6339471;22;45518;-84
2023/05/24 11:36:52;;;;;;;;;0.00;0.00;;;;;29.44;29.78;70944.91;6367343;22;46251;-83
2023/05/24 11:39:17;;;;;;;;;1.00;0.00;;;;;29.49;29.40;70917.66;6367560;22;45409;-84
2023/05/24 11:41:43;;;;;;;;;0.00;0.00;;;;;29.51;29.39;70890.09;6338864;22;45363;-83
2023/05/24 11:44:09;;;;;;;;;0.00;0.00;;;;;29.51;29.96;70966.41;6368122;22;45464;-84
2023/05/24 11:46:37;;;;;;;;;0.00;0.00;;;;;29.45;29.54;70967.91;6367918;22;45499;-83
2023/05/24 11:49:03;;;;;;;;;0.00;0.00;;;;;29.42;28.96;70762.56;6367095;22;45459;-83
2023/05/24 11:51:30;;;;;;;;;0.00;0.00;;;;;29.27;29.65;70954.25;6367589;22;45358;-83
2023/05/24 11:53:56;;;;;;;;;0.75;0.00;;;;;29.13;29.22;70802.25;6368171;22;45409;-82
2023/05/24 11:56:23;;;;;;;;;1.00;0.00;;;;;29.10;29.61;70782.25;6366769;22;47063;-82
2023/05/24 11:58:49;;;;;;;;;0.00;0.00;;;;;29.11;29.75;70842.84;6367756;22;45349;-81
2023/05/24 12:01:22;;;;;;;;;0.00;0.00;;;;;29.06;29.50;70900.00;6366574;22;45453;-84
2023/05/24 12:03:47;;;;;;;;;3.00;0.00;;;;;29.03;29.70;70806.47;6367846;22;45512;-82
2023/05/24 12:06:13;;;;;;;;;0.00;0.00;;;;;29.03;29.75;70809.19;6367672;22;45360;-82
2023/05/24 12:08:38;;;;;;;;;0.00;0.00;;;;;28.96;29.56;70774.09;6367935;22;45469;-82
2023/05/24 12:11:04;;;;;;;;;0.00;0.00;;;;;28.89;29.81;70716.56;6367245;22;45387;-81
2023/05/24 12:13:29;;;;;;;;;1.25;0.00;;;;;28.59;29.55;70749.56;6367146;22;45448;-84
2023/05/24 12:15:56;;;;;;;;;0.00;0.00;;;;;28.71;29.52;70719.94;6367865;22;45620;-81
2023/05/24 12:18:24;;;;;;;;;0.00;0.00;;;;;28.62;29.69;70685.13;6367382;22;45464;-81
2023/05/24 12:20:50;;;;;;;;;0.00;0.00;;;;;28.49;29.96;70642.19;6367526;22;45360;-82
2023/05/24 12:23:22;;;;;;;;;0.00;0.00;;;;;28.40;29.85;70631.91;6368221;22;45403;-82
2023/05/24 12:25:48;;;;;;;;;0.00;0.00;;;;;28.29;29.99;70639.78;6366386;22;46265;-82
2023/05/24 12:28:15;;;;;;;;;0.00;0.00;;;;;28.31;29.95;70625.88;6367081;22;45410;-83
2023/05/24 12:30:42;;;;;;;;;0.00;0.00;;;;;28.25;30.19;70660.03;6367778;22;45252;-82
2023/05/24 12:33:11;;;;;;;;;0.00;0.00;;;;;28.17;30.03;70631.94;6367811;22;45504;-82
2023/05/24 12:35:41;;;;;;;;;0.00;0.00;;;;;28.12;30.21;70627.97;6366906;22;45459;-82
2023/05/24 12:38:08;;;;;;;;;0.00;0.00;;;;;28.06;30.27;70631.63;6340254;22;45400;-82
2023/05/24 12:40:33;;;;;;;;;0.00;0.00;;;;;28.00;30.62;70600.47;6366983;22;45338;-82
2023/05/24 12:42:59;;;;;;;;;1.00;0.00;;;;;27.80;30.52;70555.16;6367696;22;45470;-83
2023/05/24 12:45:26;;;;;;;;;1.00;0.00;;;;;27.77;30.53;70546.09;6366655;22;46878;-82
2023/05/24 12:47:59;;;;;;;;;0.00;0.00;;;;;27.65;30.62;70529.50;6368271;22;45370;-81
2023/05/24 12:50:25;;;;;;;;;0.00;0.00;;;;;27.73;30.88;70550.03;6368601;22;45516;-81
2023/05/24 12:52:52;;;;;;;;;0.00;0.00;;;;;27.53;30.65;70550.94;6369269;22;45321;-83
2023/05/24 12:55:23;;;;;;;;;0.25;0.25;;;;;27.61;30.31;70546.41;6367806;22;46567;-81
2023/05/24 12:57:52;;;;;;;;;0.00;0.00;;;;;27.52;30.19;70489.94;6368669;22;45431;-82
2023/05/24 13:00:28;;;;;;;;;0.00;0.00;;;;;27.47;30.64;70481.19;6368405;22;45336;-82
2023/05/24 13:02:58;;;;;;;;;0.00;0.00;;;;;27.40;30.82;70545.50;6363772;22;45492;-83
2023/05/24 13:05:25;;;;;;;;;0.00;0.00;;;;;27.30;30.97;70539.44;6366811;22;46111;-83
2023/05/24 13:07:55;;;;;;;;;1.00;0.00;;;;;27.30;30.77;70438.91;6367356;22;45501;-83
2023/05/24 13:10:20;;;;;;;;;0.00;0.00;;;;;27.25;31.02;70495.97;6366129;22;45396;-81
2023/05/24 13:12:46;;;;;;;;;0.00;0.00;;;;;27.21;30.77;70471.53;6368344;22;45327;-82
2023/05/24 13:15:12;;;;;;;;;0.00;0.00;;;;;27.16;31.41;70452.50;6368235;22;46829;-82
2023/05/24 13:17:38;;;;;;;;;0.00;0.00;;;;;26.95;31.24;70428.34;6367410;22;45359;-83
2023/05/24 13:20:06;;;;;;;;;0.00;0.00;;;;;26.88;31.22;70438.91;6368112;22;45711;-84
2023/05/24 13:22:33;;;;;;;;;0.00;0.00;;;;;26.99;31.41;70421.13;6367579;22;45515;-79
2023/05/24 13:24:59;;;;;;;;;0.00;0.00;;;;;26.86;31.78;70441.94;6364999;22;47088;-80
2023/05/24 13:27:25;;;;;;;;;1.67;0.00;;;;;26.89;31.04;70412.97;6367845;22;45735;-83
2023/05/24 13:29:51;;;;;;;;;0.00;0.00;;;;;26.82;31.11;70417.50;6367841;22;45391;-80
2023/05/24 13:32:17;;;;;;;;;0.00;0.00;;;;;26.77;31.56;70357.78;6338820;22;45406;-81
2023/05/24 13:34:43;;;;;;;;;1.00;0.50;;;;;26.61;31.64;70368.94;6368058;22;46204;-80
2023/05/24 13:37:08;;;;;;;;;0.00;0.00;;;;;26.76;31.46;70450.97;6366894;22;45332;-78
2023/05/24 13:39:34;;;;;;;;;0.00;0.00;;;;;26.64;31.55;70380.09;6367869;22;45692;-78
2023/05/24 13:42:00;;;;;;;;;0.00;0.00;;;;;26.64;31.50;70320.38;6367693;22;45448;-80
2023/05/24 13:44:25;;;;;;;;;0.00;0.00;;;;;26.34;31.70;70393.94;6367738;22;46578;-79
2023/05/24 13:46:51;;;;;;;;;0.00;0.00;;;;;26.55;32.01;70337.28;6368514;22;45325;-80
2023/05/24 13:49:16;;;;;;;;;0.33;0.33;;;;;26.48;31.71;70331.53;6367963;22;45509;-79
2023/05/24 13:51:42;;;;;;;;;1.25;0.25;;;;;26.47;32.21;70335.75;6368413;22;45412;-81
2023/05/24 13:54:07;;;;;;;;;0.75;0.75;;;;;26.43;31.98;70361.38;6367709;22;46416;-84
2023/05/24 13:56:33;;;;;;;;;0.00;0.00;;;;;26.40;31.88;70395.13;6367460;22;45406;-80
2023/05/24 13:58:59;;;;;;;;;0.00;0.00;;;;;26.37;32.36;70361.69;6367752;22;45381;-83
2023/05/24 14:01:25;;;;;;;;;0.00;0.00;;;;;26.32;31.88;70383.97;6368456;22;45398;-79
2023/05/24 14:03:51;;;;;;;;;0.00;0.00;;;;;26.29;32.13;70334.25;6365173;22;46022;-82
2023/05/24 14:06:17;;;;;;;;;0.00;0.00;;;;;26.12;32.33;70311.03;6367573;22;45359;-81
2023/05/24 14:08:42;;;;;;;;;0.00;0.00;;;;;26.09;31.56;70261.34;6367760;22;45364;-80
2023/05/24 14:11:08;;;;;;;;;0.00;0.00;;;;;26.15;32.00;70324.88;6363454;22;45320;-79
2023/05/24 14:13:33;;;;;;;;;0.00;0.00;;;;;25.85;31.89;70227.59;6366047;22;45351;-82
2023/05/24 14:15:59;;;;;;;;;0.00;0.00;;;;;25.95;31.98;70299.28;6368276;22;45643;-79
2023/05/24 14:18:24;;;;;;;;;0.00;0.00;;;;;25.98;32.08;70294.16;6367978;22;45366;-79
2023/05/24 14:20:50;;;;;;;;;0.00;0.00;;;;;25.89;32.25;70292.66;6368054;22;45497;-79
2023/05/24 14:23:15;;;;;;;;;0.50;0.00;;;;;25.88;32.58;70269.16;6366432;22;45534;-79
2023/05/24 14:25:40;;;;;;;;;1.00;1.00;;;;;25.85;31.95;70224.88;6366825;22;45393;-79
2023/05/24 14:28:08;;;;;;;;;2.00;0.00;;;;;25.61;32.64;70218.81;6368373;22;45633;-79
2023/05/24 14:30:36;;;;;;;;;0.00;0.00;;;;;25.63;32.24;70239.59;6368108;22;45321;-80
2023/05/24 14:33:01;;;;;;;;;0.00;0.00;;;;;25.74;32.62;70236.59;6367490;22;45441;-78
2023/05/24 14:35:29;;;;;;;;;0.00;0.00;;;;;25.55;32.81;70268.50;6367924;22;45312;-79
2023/05/24 14:37:54;;;;;;;;;1.00;0.00;;;;;25.64;32.77;70235.41;6363564;22;45490;-78
2023/05/24 14:40:20;;;;;;;;;0.00;0.00;;;;;25.65;32.52;70247.44;6367015;22;45459;-78
2023/05/24 14:42:45;;;;;;;;;0.00;0.00;;;;;25.57;32.40;70219.44;6367019;22;46069;-79
2023/05/24 14:45:11;;;;;;;;;0.00;0.00;;;;;25.44;32.72;70217.91;6367313;22;45402;-79
2023/05/24 14:47:36;;;;;;;;;0.00;0.00;;;;;25.51;33.42;70195.94;6367140;22;45387;-79
2023/05/24 14:50:02;;;;;;;;;0.00;0.00;;;;;25.38;33.07;70204.66;6367659;22;45366;-79
2023/05/24 14:52:27;;;;;;;;;0.00;0.00;;;;;25.31;32.91;70182.69;6366807;22;47222;-82
2023/05/24 14:54:55;;;;;;;;;1.00;1.00;;;;;25.28;33.09;70201.94;6367567;22;45409;-78
2023/05/24 14:57:21;;;;;;;;;2.00;0.00;;;;;25.36;32.74;70164.38;6367733;22;45433;-80
2023/05/24 14:59:46;;;;;;;;;0.67;0.67;;;;;25.31;32.79;70182.69;6367717;22;45389;-80
2023/05/24 15:02:12;;;;;;;;;0.00;0.00;;;;;25.16;33.48;70097.53;6367263;22;46869;-80
2023/05/24 15:04:37;;;;;;;;;0.00;0.00;;;;;25.06;32.92;70184.16;6366868;22;45322;-83
2023/05/24 15:07:03;;;;;;;;;0.00;0.00;;;;;25.01;33.32;70137.53;6367074;22;45357;-81
2023/05/24 15:09:28;;;;;;;;;0.00;0.00;;;;;25.10;33.59;70130.91;6364865;22;45403;-79
2023/05/24 15:11:53;;;;;;;;;0.33;0.33;;;;;24.93;33.74;70168.50;6365074;22;45466;-80
2023/05/24 15:14:19;;;;;;;;;0.00;0.00;;;;;24.92;33.59;70137.53;6366804;22;45415;-82
2023/05/24 15:16:45;;;;;;;;;1.00;1.00;;;;;24.94;33.76;70161.59;6367337;22;45389;-81
2023/05/24 15:19:12;;;;;;;;;0.33;0.33;;;;;24.88;33.75;70154.34;6366414;22;45381;-83
2023/05/24 15:21:37;;;;;;;;;0.00;0.00;;;;;24.92;33.81;70109.88;6366443;22;46196;-83
2023/05/24 15:24:06;;;;;;;;;3.00;0.00;;;;;24.87;33.51;70139.63;6367488;22;45416;-83
2023/05/24 15:26:34;;;;;;;;;2.00;0.00;;;;;24.84;33.80;70090.00;6367129;22;45419;-82
2023/05/24 15:29:02;;;;;;;;;0.00;0.00;;;;;24.73;34.28;70126.06;6367233;22;45458;-82
2023/05/24 15:31:28;;;;;;;;;0.00;0.00;;;;;24.59;34.40;70147.09;6366422;22;46181;-82
2023/05/24 15:33:53;;;;;;;;;0.67;0.67;;;;;24.56;34.02;70070.44;6367622;22;45406;-83
2023/05/24 15:36:18;;;;;;;;;1.00;1.00;;;;;24.72;34.26;70124.25;6366633;22;45321;-83
2023/05/24 15:38:44;;;;;;;;;1.33;1.00;;;;;24.70;34.12;70168.47;6367068;22;45315;-84
2023/05/24 15:41:09;;;;;;;;;1.00;1.00;;;;;24.58;34.16;70116.13;6366930;22;46057;-82
2023/05/24 15:43:35;;;;;;;;;1.00;1.00;;;;;24.50;34.04;70122.72;6366599;22;45362;-82
2023/05/24 15:46:00;;;;;;;;;0.75;0.25;;;;;24.74;34.21;70164.56;6367500;22;45793;-82
2023/05/24 15:48:25;;;;;;;;;0.00;0.00;;;;;24.75;34.76;70098.72;6367416;22;45472;-83
2023/05/24 15:50:51;;;;;;;;;1.00;1.00;;;;;24.73;34.88;70120.66;6366289;22;47578;-82
2023/05/24 15:53:16;;;;;;;;;0.00;0.00;;;;;24.68;34.39;70127.56;6338213;22;45721;-82
2023/05/24 15:55:42;;;;;;;;;1.00;1.00;;;;;24.53;34.77;70075.56;6366800;22;45444;-81
2023/05/24 15:58:08;;;;;;;;;1.00;1.00;;;;;24.58;34.60;70078.25;6367030;22;45499;-85
2023/05/24 16:00:33;;;;;;;;;0.67;0.67;;;;;24.64;34.60;70110.44;6365879;22;45496;-82
2023/05/24 16:02:59;;;;;;;;;1.00;0.00;;;;;24.64;34.49;70145.00;6365988;22;45473;-81
2023/05/24 16:05:25;;;;;;;;;0.00;0.00;;;;;24.47;34.70;70125.13;6366871;22;45403;-81
2023/05/24 16:07:51;;;;;;;;;1.00;1.00;;;;;24.59;34.63;70174.75;6366466;22;45376;-81
2023/05/24 16:10:16;;;;;;;;;1.00;1.00;;;;;24.51;34.98;70110.41;6366979;22;45323;-82
2023/05/24 16:12:41;;;;;;;;;1.00;1.00;;;;;24.64;34.80;70150.41;6366634;22;45364;-80
2023/05/24 16:15:08;;;;;;;;;1.00;1.00;;;;;24.61;35.06;70100.81;6366890;22;45378;-82
2023/05/24 16:17:33;;;;;;;;;0.00;0.00;;;;;24.53;35.30;70088.47;6366300;22;45624;-81
2023/05/24 16:19:58;;;;;;;;;1.33;1.33;;;;;24.54;34.56;70109.22;6366207;22;51109;-81
2023/05/24 16:22:24;;;;;;;;;1.00;1.00;;;;;24.33;35.04;70116.97;6367868;22;45385;-81
2023/05/24 16:24:50;;;;;;;;;2.00;1.00;;;;;24.41;35.03;70107.06;6367802;22;45413;-81
2023/05/24 16:27:18;;;;;;;;;1.00;1.00;;;;;24.33;35.02;70062.28;6367978;22;45342;-81
2023/05/24 16:29:45;;;;;;;;;1.00;1.00;;;;;24.35;34.65;70073.41;6339702;22;47299;-82
2023/05/24 16:32:12;;;;;;;;;1.67;1.67;;;;;24.25;35.28;70028.31;6367488;22;45452;-81